Time;durP1;ratioP1;P1;durP2;ratioP2;P2;SDS_P1;SDS_P2;PMS_P1;PMS_P2;Temp;Humidity;BMP_temperature;BMP_pressure;BME280_temperature;BME280_humidity;BME280_pressure;Samples;Min_cycle;Max_cycle;Signal;HPM_P1;HPM_P2
2022/01/07 00:01:02;;;;;;;82.78;29.02;;;;;;;;;;5071747;28;20025;-73
2022/01/07 00:03:28;;;;;;;80.78;28.35;;;;;;;;;;5075808;28;20029;-75
2022/01/07 00:05:55;;;;;;;75.60;27.67;;;;;;;;;;5072518;28;20020;-75
2022/01/07 00:08:21;;;;;;;90.18;28.23;;;;;;;;;;5072586;28;20097;-75
2022/01/07 00:10:47;;;;;;;95.93;29.38;;;;;;;;;;5072627;28;20013;-75
2022/01/07 00:13:13;;;;;;;95.75;30.80;;;;;;;;;;5072063;28;20028;-74
2022/01/07 00:15:39;;;;;;;79.40;28.95;;;;;;;;;;5072727;28;20024;-76
2022/01/07 00:18:05;;;;;;;85.05;30.20;;;;;;;;;;5073312;28;20430;-74
2022/01/07 00:20:31;;;;;;;81.00;29.25;;;;;;;;;;5072828;28;20108;-76
2022/01/07 00:22:57;;;;;;;84.35;32.17;;;;;;;;;;5069936;28;20039;-75
2022/01/07 00:25:24;;;;;;;91.03;30.85;;;;;;;;;;5071838;28;20025;-74
2022/01/07 00:27:50;;;;;;;85.95;29.23;;;;;;;;;;5072227;28;20020;-74
2022/01/07 00:30:17;;;;;;;89.47;30.40;;;;;;;;;;5072390;28;20031;-75
2022/01/07 00:32:43;;;;;;;96.40;31.73;;;;;;;;;;5072216;28;20024;-74
2022/01/07 00:35:09;;;;;;;91.15;30.67;;;;;;;;;;5070883;28;20021;-73
2022/01/07 00:37:36;;;;;;;83.25;30.83;;;;;;;;;;5070511;28;20032;-74
2022/01/07 00:40:02;;;;;;;102.30;32.05;;;;;;;;;;5070824;28;20477;-74
2022/01/07 00:42:28;;;;;;;94.60;32.22;;;;;;;;;;5071822;28;20032;-75
2022/01/07 00:44:54;;;;;;;91.63;32.50;;;;;;;;;;5072174;28;20028;-75
2022/01/07 00:47:20;;;;;;;82.07;31.45;;;;;;;;;;5071738;28;20024;-75
2022/01/07 00:49:46;;;;;;;95.03;32.13;;;;;;;;;;5072019;28;20024;-76
2022/01/07 00:52:12;;;;;;;84.78;32.67;;;;;;;;;;5071924;28;20469;-74
2022/01/07 00:54:38;;;;;;;85.07;31.10;;;;;;;;;;5070682;28;20085;-75
2022/01/07 00:57:04;;;;;;;91.88;34.92;;;;;;;;;;5071584;28;20538;-74
2022/01/07 00:59:30;;;;;;;98.22;34.28;;;;;;;;;;5072064;28;20028;-75
2022/01/07 01:01:56;;;;;;;87.45;33.60;;;;;;;;;;5072494;28;20537;-74
2022/01/07 01:04:22;;;;;;;78.90;31.10;;;;;;;;;;5073757;28;20021;-76
2022/01/07 01:06:48;;;;;;;102.05;31.67;;;;;;;;;;5071551;28;20358;-74
2022/01/07 01:09:14;;;;;;;92.07;31.98;;;;;;;;;;5072193;28;20123;-75
2022/01/07 01:11:40;;;;;;;89.65;29.98;;;;;;;;;;5072324;28;20024;-74
2022/01/07 01:14:06;;;;;;;96.45;32.20;;;;;;;;;;5072091;28;20043;-74
2022/01/07 01:16:32;;;;;;;96.10;31.75;;;;;;;;;;5072124;28;20106;-73
2022/01/07 01:18:59;;;;;;;88.63;32.67;;;;;;;;;;5072180;28;20047;-76
2022/01/07 01:21:25;;;;;;;92.07;30.73;;;;;;;;;;5070926;28;20021;-75
2022/01/07 01:23:51;;;;;;;82.90;30.08;;;;;;;;;;5071904;28;20041;-74
2022/01/07 01:26:18;;;;;;;99.07;31.30;;;;;;;;;;5071873;28;20035;-75
2022/01/07 01:28:45;;;;;;;75.80;28.63;;;;;;;;;;5075868;28;20070;-73
2022/01/07 01:31:14;;;;;;;90.07;29.88;;;;;;;;;;5072351;28;20027;-76
2022/01/07 01:33:40;;;;;;;85.22;28.75;;;;;;;;;;5077163;28;20020;-75
2022/01/07 01:36:08;;;;;;;87.00;27.17;;;;;;;;;;5080629;28;20025;-73
2022/01/07 01:38:34;;;;;;;85.75;28.48;;;;;;;;;;5079064;28;20021;-74
2022/01/07 01:41:00;;;;;;;77.93;27.92;;;;;;;;;;5079627;28;20046;-73
2022/01/07 01:43:26;;;;;;;86.97;28.13;;;;;;;;;;5076763;28;20036;-75
2022/01/07 01:45:52;;;;;;;74.10;27.77;;;;;;;;;;5075838;28;20024;-74
2022/01/07 01:48:20;;;;;;;76.82;27.70;;;;;;;;;;5076147;28;20078;-72
2022/01/07 01:50:46;;;;;;;74.00;27.08;;;;;;;;;;5076263;28;20367;-75
2022/01/07 01:53:12;;;;;;;81.65;27.17;;;;;;;;;;5076230;28;20030;-76
2022/01/07 01:55:38;;;;;;;68.88;26.08;;;;;;;;;;5075697;28;20100;-76
2022/01/07 01:58:05;;;;;;;71.88;26.75;;;;;;;;;;5075883;28;20058;-74
2022/01/07 02:00:31;;;;;;;81.00;27.30;;;;;;;;;;5075719;28;20020;-76
2022/01/07 02:02:57;;;;;;;67.85;25.88;;;;;;;;;;5077510;28;20058;-74
2022/01/07 02:05:24;;;;;;;72.78;24.85;;;;;;;;;;5076332;28;20427;-74
2022/01/07 02:07:50;;;;;;;83.32;27.30;;;;;;;;;;5075821;28;20055;-75
2022/01/07 02:10:17;;;;;;;70.82;25.38;;;;;;;;;;5075583;28;20079;-73
2022/01/07 02:12:43;;;;;;;65.32;25.25;;;;;;;;;;5074158;28;20550;-75
2022/01/07 02:15:10;;;;;;;76.50;26.00;;;;;;;;;;5076132;28;20048;-73
2022/01/07 02:17:40;;;;;;;71.40;24.63;;;;;;;;;;5084009;28;20580;-73
2022/01/07 02:20:07;;;;;;;81.80;25.75;;;;;;;;;;5084649;28;20382;-74
2022/01/07 02:22:33;;;;;;;73.25;25.83;;;;;;;;;;5105301;22;20064;-76
2022/01/07 02:24:59;;;;;;;70.82;23.35;;;;;;;;;;5109419;28;20042;-76
2022/01/07 02:27:25;;;;;;;75.85;24.98;;;;;;;;;;5097987;28;20502;-76
2022/01/07 02:29:51;;;;;;;72.95;23.02;;;;;;;;;;5095057;28;20032;-77
2022/01/07 02:32:18;;;;;;;73.43;23.85;;;;;;;;;;5095146;28;20028;-77
2022/01/07 02:34:47;;;;;;;77.63;22.58;;;;;;;;;;5076899;28;20027;-77
2022/01/07 02:37:14;;;;;;;72.95;22.67;;;;;;;;;;5094873;28;20380;-77
2022/01/07 02:39:40;;;;;;;77.95;21.63;;;;;;;;;;5076836;28;20495;-77
2022/01/07 02:42:06;;;;;;;67.50;22.88;;;;;;;;;;5076792;28;20031;-75
2022/01/07 02:44:33;;;;;;;72.18;21.75;;;;;;;;;;5094881;28;20102;-75
2022/01/07 02:46:59;;;;;;;68.68;20.83;;;;;;;;;;5093546;28;20063;-75
2022/01/07 02:49:25;;;;;;;59.05;20.23;;;;;;;;;;5076639;28;20032;-75
2022/01/07 02:51:51;;;;;;;58.13;20.77;;;;;;;;;;5076705;28;20027;-75
2022/01/07 02:54:17;;;;;;;55.63;20.65;;;;;;;;;;5095337;28;20415;-77
2022/01/07 02:56:43;;;;;;;66.38;20.85;;;;;;;;;;5095143;28;20073;-77
2022/01/07 02:59:11;;;;;;;64.53;19.42;;;;;;;;;;5070170;28;20147;-77
2022/01/07 03:01:38;;;;;;;55.35;19.40;;;;;;;;;;5074779;28;20032;-77
2022/01/07 03:04:04;;;;;;;66.10;18.45;;;;;;;;;;5074368;28;20424;-77
2022/01/07 03:06:30;;;;;;;50.47;17.40;;;;;;;;;;5074458;28;20028;-77
2022/01/07 03:08:57;;;;;;;59.47;17.20;;;;;;;;;;5074423;28;20462;-76
2022/01/07 03:11:23;;;;;;;55.15;18.65;;;;;;;;;;5075287;28;20020;-76
2022/01/07 03:13:49;;;;;;;61.40;17.60;;;;;;;;;;5074884;28;20100;-77
2022/01/07 03:16:15;;;;;;;63.33;17.60;;;;;;;;;;5074988;28;20029;-76
2022/01/07 03:18:41;;;;;;;51.90;16.95;;;;;;;;;;5056768;28;20082;-76
2022/01/07 03:21:07;;;;;;;52.15;16.02;;;;;;;;;;5074398;28;20028;-76
2022/01/07 03:23:33;;;;;;;49.55;15.18;;;;;;;;;;5079933;28;20021;-76
2022/01/07 03:25:59;;;;;;;43.72;14.82;;;;;;;;;;5078548;28;20486;-77
2022/01/07 03:28:25;;;;;;;57.90;15.43;;;;;;;;;;5082333;28;20029;-77
2022/01/07 03:30:52;;;;;;;57.22;15.00;;;;;;;;;;5074507;28;20020;-76
2022/01/07 03:33:19;;;;;;;42.08;13.98;;;;;;;;;;5074965;28;20085;-76
2022/01/07 03:35:45;;;;;;;55.80;13.52;;;;;;;;;;5074233;28;20017;-77
2022/01/07 03:38:11;;;;;;;37.03;13.57;;;;;;;;;;5074846;28;20090;-77
2022/01/07 03:40:38;;;;;;;54.50;14.50;;;;;;;;;;5074769;28;20493;-77
2022/01/07 03:43:04;;;;;;;41.03;12.55;;;;;;;;;;5075147;28;20112;-76
2022/01/07 03:45:30;;;;;;;45.33;13.10;;;;;;;;;;5093462;28;20104;-77
2022/01/07 03:47:56;;;;;;;47.55;12.85;;;;;;;;;;5090361;28;20097;-76
2022/01/07 03:50:23;;;;;;;41.92;13.00;;;;;;;;;;5074737;28;20485;-76
2022/01/07 03:52:49;;;;;;;38.78;13.10;;;;;;;;;;5077709;28;20043;-79
2022/01/07 03:55:18;;;;;;;58.45;12.93;;;;;;;;;;5075350;28;20050;-77
2022/01/07 03:57:44;;;;;;;43.95;12.65;;;;;;;;;;5073832;28;20016;-77
2022/01/07 04:00:12;;;;;;;41.90;11.80;;;;;;;;;;5073595;28;20033;-77
2022/01/07 04:02:38;;;;;;;41.63;11.30;;;;;;;;;;5073834;28;20074;-76
2022/01/07 04:05:04;;;;;;;45.72;12.45;;;;;;;;;;5074152;28;20055;-75
2022/01/07 04:07:33;;;;;;;33.40;10.88;;;;;;;;;;5074154;28;20031;-75
2022/01/07 04:09:59;;;;;;;41.72;11.15;;;;;;;;;;5073709;28;20063;-74
2022/01/07 04:12:26;;;;;;;34.17;10.93;;;;;;;;;;5073192;28;20028;-75
2022/01/07 04:15:02;;;;;;;36.88;10.55;;;;;;;;;;5073086;28;20024;-75
2022/01/07 04:17:28;;;;;;;34.30;10.80;;;;;;;;;;5054883;28;20029;-75
2022/01/07 04:19:54;;;;;;;36.60;10.85;;;;;;;;;;5055106;28;20039;-74
2022/01/07 04:22:20;;;;;;;38.33;11.02;;;;;;;;;;5055202;28;20021;-75
2022/01/07 04:24:46;;;;;;;42.13;11.30;;;;;;;;;;5073031;28;20025;-75
2022/01/07 04:27:12;;;;;;;49.97;11.25;;;;;;;;;;5054951;28;20060;-75
2022/01/07 04:29:38;;;;;;;39.17;10.90;;;;;;;;;;5073554;28;20040;-75
2022/01/07 04:32:05;;;;;;;41.10;11.07;;;;;;;;;;5073211;28;20082;-75
2022/01/07 04:34:31;;;;;;;44.88;11.98;;;;;;;;;;5055550;28;20103;-75
2022/01/07 04:36:57;;;;;;;36.72;12.18;;;;;;;;;;5072200;28;20066;-75
2022/01/07 04:39:23;;;;;;;40.85;11.32;;;;;;;;;;5072509;28;20032;-75
2022/01/07 04:41:49;;;;;;;39.25;11.10;;;;;;;;;;5072984;28;20024;-76
2022/01/07 04:44:16;;;;;;;47.35;13.30;;;;;;;;;;5054487;28;20477;-76
2022/01/07 04:46:42;;;;;;;48.25;11.93;;;;;;;;;;5056270;28;20401;-74
2022/01/07 04:49:08;;;;;;;39.67;11.93;;;;;;;;;;5090236;28;20050;-74
2022/01/07 04:51:34;;;;;;;44.05;12.55;;;;;;;;;;5096040;28;20016;-74
2022/01/07 04:54:00;;;;;;;46.35;14.70;;;;;;;;;;5097139;28;20068;-73
2022/01/07 04:56:26;;;;;;;41.70;12.85;;;;;;;;;;5096336;28;20012;-72
2022/01/07 04:58:52;;;;;;;41.00;12.80;;;;;;;;;;5096289;28;20017;-73
2022/01/07 05:01:18;;;;;;;44.20;12.88;;;;;;;;;;5097264;28;20016;-73
2022/01/07 05:03:44;;;;;;;51.03;13.95;;;;;;;;;;5096093;28;20020;-74
2022/01/07 05:06:33;;;;;;;45.20;13.30;;;;;;;;;;5107227;28;20056;-72
2022/01/07 05:08:59;;;;;;;40.20;12.45;;;;;;;;;;5116973;28;20050;-75
2022/01/07 05:11:25;;;;;;;65.43;14.15;;;;;;;;;;5121053;28;20020;-72
2022/01/07 05:13:51;;;;;;;42.40;13.55;;;;;;;;;;5121083;28;20070;-73
2022/01/07 05:16:16;;;;;;;45.17;12.73;;;;;;;;;;5106503;28;20032;-75
2022/01/07 05:18:42;;;;;;;44.60;13.65;;;;;;;;;;5097224;28;20024;-75
2022/01/07 05:21:08;;;;;;;39.45;13.27;;;;;;;;;;5079192;28;20039;-76
2022/01/07 05:23:34;;;;;;;46.25;14.25;;;;;;;;;;5104531;28;20028;-75
2022/01/07 05:26:00;;;;;;;43.50;14.32;;;;;;;;;;5104214;28;20032;-75
2022/01/07 05:28:26;;;;;;;38.40;14.10;;;;;;;;;;5104109;28;20107;-76
2022/01/07 05:30:52;;;;;;;45.67;14.35;;;;;;;;;;5097721;28;20028;-75
2022/01/07 05:33:18;;;;;;;42.47;13.93;;;;;;;;;;5097362;28;20020;-75
2022/01/07 05:35:44;;;;;;;44.95;14.25;;;;;;;;;;5098768;28;20074;-75
2022/01/07 05:38:10;;;;;;;35.22;13.73;;;;;;;;;;5107840;28;20024;-74
2022/01/07 05:40:36;;;;;;;50.25;15.20;;;;;;;;;;5105193;28;20028;-75
2022/01/07 05:43:02;;;;;;;36.58;13.65;;;;;;;;;;5078786;28;20098;-76
2022/01/07 05:45:28;;;;;;;49.20;13.60;;;;;;;;;;5095874;28;20058;-76
2022/01/07 05:47:54;;;;;;;41.28;14.15;;;;;;;;;;5096264;28;20080;-75
2022/01/07 05:50:21;;;;;;;45.40;13.93;;;;;;;;;;5096802;28;20381;-75
2022/01/07 05:52:47;;;;;;;38.13;13.57;;;;;;;;;;5099323;28;20045;-75
2022/01/07 05:55:13;;;;;;;42.15;15.13;;;;;;;;;;5081221;28;20059;-76
2022/01/07 05:57:39;;;;;;;46.28;14.95;;;;;;;;;;5096616;28;20035;-75
2022/01/07 06:00:07;;;;;;;47.72;14.68;;;;;;;;;;5107830;28;20062;-74
2022/01/07 06:02:33;;;;;;;48.63;14.82;;;;;;;;;;5108123;28;20090;-76
2022/01/07 06:04:59;;;;;;;35.72;14.00;;;;;;;;;;5096648;28;20024;-76
2022/01/07 06:07:25;;;;;;;40.40;13.43;;;;;;;;;;5095984;28;20047;-75
2022/01/07 06:09:51;;;;;;;41.05;13.95;;;;;;;;;;5096099;28;20032;-76
2022/01/07 06:12:17;;;;;;;36.30;13.85;;;;;;;;;;5097066;28;20020;-75
2022/01/07 06:14:43;;;;;;;35.08;13.85;;;;;;;;;;5096347;28;20387;-75
2022/01/07 06:17:11;;;;;;;36.72;13.18;;;;;;;;;;5095502;28;20016;-75
2022/01/07 06:19:37;;;;;;;36.35;14.32;;;;;;;;;;5096661;28;20036;-75
2022/01/07 06:22:03;;;;;;;31.98;14.80;;;;;;;;;;5080021;28;20028;-75
2022/01/07 06:24:29;;;;;;;37.17;14.32;;;;;;;;;;5078657;28;20036;-76
2022/01/07 06:26:55;;;;;;;39.28;14.68;;;;;;;;;;5096328;28;20024;-75
2022/01/07 06:29:22;;;;;;;33.40;13.80;;;;;;;;;;5097693;28;20028;-75
2022/01/07 06:31:48;;;;;;;38.20;13.35;;;;;;;;;;5097307;28;20059;-75
2022/01/07 06:34:16;;;;;;;41.15;13.80;;;;;;;;;;5096610;28;20032;-75
2022/01/07 06:36:42;;;;;;;36.42;13.50;;;;;;;;;;5096390;28;20119;-75
2022/01/07 06:39:08;;;;;;;37.85;13.80;;;;;;;;;;5096901;28;20036;-75
2022/01/07 06:41:34;;;;;;;33.83;13.50;;;;;;;;;;5080860;28;20039;-75
2022/01/07 06:44:00;;;;;;;43.30;13.98;;;;;;;;;;5099187;28;20032;-75
2022/01/07 06:46:26;;;;;;;35.85;13.15;;;;;;;;;;5095796;28;20028;-75
2022/01/07 06:48:52;;;;;;;35.38;13.32;;;;;;;;;;5096214;28;20024;-75
2022/01/07 06:51:18;;;;;;;27.27;12.52;;;;;;;;;;5095772;28;20028;-76
2022/01/07 06:53:44;;;;;;;34.65;14.10;;;;;;;;;;5095608;28;20046;-76
2022/01/07 06:56:10;;;;;;;44.60;14.95;;;;;;;;;;5095759;28;20423;-74
2022/01/07 06:58:36;;;;;;;35.20;13.30;;;;;;;;;;5096807;28;20042;-77
2022/01/07 07:01:02;;;;;;;34.72;13.02;;;;;;;;;;5077606;28;20053;-78
2022/01/07 07:03:28;;;;;;;32.22;13.07;;;;;;;;;;5097837;28;20052;-75
2022/01/07 07:05:54;;;;;;;26.73;12.55;;;;;;;;;;5098544;28;20388;-75
2022/01/07 07:08:20;;;;;;;32.08;13.30;;;;;;;;;;5097327;28;20051;-75
2022/01/07 07:10:46;;;;;;;29.95;13.48;;;;;;;;;;5096949;28;20028;-75
2022/01/07 07:13:12;;;;;;;26.02;12.82;;;;;;;;;;5095623;28;20538;-75
2022/01/07 07:15:38;;;;;;;35.38;13.70;;;;;;;;;;5096679;28;20091;-75
2022/01/07 07:18:04;;;;;;;34.03;14.13;;;;;;;;;;5094005;28;20061;-75
2022/01/07 07:20:30;;;;;;;34.20;13.55;;;;;;;;;;5093463;28;20365;-74
2022/01/07 07:22:56;;;;;;;29.73;13.80;;;;;;;;;;5093843;28;20065;-75
2022/01/07 07:25:23;;;;;;;34.38;14.10;;;;;;;;;;5078155;28;20035;-75
2022/01/07 07:27:50;;;;;;;35.03;13.55;;;;;;;;;;5098178;28;20033;-76
2022/01/07 07:30:16;;;;;;;30.73;13.25;;;;;;;;;;5100760;28;20339;-76
2022/01/07 07:32:42;;;;;;;30.45;13.15;;;;;;;;;;5097633;28;20491;-76
2022/01/07 07:37:47;;;;;;;32.83;12.82;;;;;;;;;;5094435;28;20027;-75
2022/01/07 07:40:13;;;;;;;25.05;12.70;;;;;;;;;;5095160;28;20028;-73
2022/01/07 07:42:39;;;;;;;32.53;15.02;;;;;;;;;;5103752;28;20047;-74
2022/01/07 07:45:05;;;;;;;32.67;13.38;;;;;;;;;;5098638;28;20020;-74
2022/01/07 07:47:33;;;;;;;26.98;13.68;;;;;;;;;;5097394;28;20039;-74
2022/01/07 07:49:59;;;;;;;32.13;14.35;;;;;;;;;;5084547;28;20060;-76
2022/01/07 07:52:25;;;;;;;29.40;13.52;;;;;;;;;;5117994;28;20054;-75
2022/01/07 07:54:51;;;;;;;39.08;14.57;;;;;;;;;;5107646;28;20528;-73
2022/01/07 07:57:18;;;;;;;39.53;14.32;;;;;;;;;;5094759;28;20032;-74
2022/01/07 07:59:44;;;;;;;41.70;15.55;;;;;;;;;;5094616;28;20086;-75
2022/01/07 08:02:10;;;;;;;34.33;15.10;;;;;;;;;;5094619;28;20032;-73
2022/01/07 08:04:39;;;;;;;49.08;18.58;;;;;;;;;;5099454;28;20024;-74
2022/01/07 08:07:05;;;;;;;32.90;13.63;;;;;;;;;;5103444;28;20042;-76
2022/01/07 08:09:36;;;;;;;36.08;16.00;;;;;;;;;;5084432;28;20028;-75
2022/01/07 08:12:16;;;;;;;38.22;14.80;;;;;;;;;;5103092;28;20052;-73
2022/01/07 08:17:27;;;;;;;38.20;16.38;;;;;;;;;;5114909;28;20023;-76
2022/01/07 08:19:53;;;;;;;33.67;15.07;;;;;;;;;;5117935;28;20104;-74
2022/01/07 08:22:19;;;;;;;35.75;16.20;;;;;;;;;;5099200;28;20038;-75
2022/01/07 08:24:45;;;;;;;47.35;17.25;;;;;;;;;;5125414;23;20051;-74
2022/01/07 08:27:11;;;;;;;55.30;24.02;;;;;;;;;;5095464;28;20045;-72
2022/01/07 08:29:39;;;;;;;35.25;15.65;;;;;;;;;;5094427;28;20540;-74
2022/01/07 08:34:53;;;;;;;;;;;;;;;;;;5097678;28;20035;-74
2022/01/07 08:37:20;;;;;;;39.47;15.63;;;;;;;;;;5105680;28;19927;-77
2022/01/07 08:39:46;;;;;;;35.63;15.05;;;;;;;;;;5100196;28;20025;-74
2022/01/07 08:42:12;;;;;;;31.48;14.75;;;;;;;;;;5105675;28;20028;-75
2022/01/07 08:44:38;;;;;;;32.38;13.48;;;;;;;;;;5103291;28;20020;-74
2022/01/07 08:47:04;;;;;;;28.38;13.32;;;;;;;;;;5112687;28;20020;-74
2022/01/07 08:49:30;;;;;;;31.67;14.27;;;;;;;;;;5096957;28;20024;-74
2022/01/07 08:51:59;;;;;;;24.17;12.77;;;;;;;;;;5107228;28;20442;-76
2022/01/07 08:54:25;;;;;;;25.45;12.00;;;;;;;;;;5109102;28;20041;-74
2022/01/07 08:56:51;;;;;;;22.92;12.05;;;;;;;;;;5102134;28;20024;-73
2022/01/07 08:59:17;;;;;;;23.63;12.50;;;;;;;;;;5075700;28;20028;-74
2022/01/07 09:01:43;;;;;;;30.90;12.88;;;;;;;;;;5094045;28;20025;-73
2022/01/07 09:04:09;;;;;;;30.27;15.18;;;;;;;;;;5091601;28;20031;-73
2022/01/07 09:06:35;;;;;;;26.85;13.02;;;;;;;;;;5074696;28;20499;-73
2022/01/07 09:09:02;;;;;;;22.65;13.20;;;;;;;;;;5094024;28;20027;-73
2022/01/07 09:11:28;;;;;;;22.10;12.40;;;;;;;;;;5103069;28;20027;-75
2022/01/07 09:13:58;;;;;;;20.73;12.32;;;;;;;;;;5082590;28;20400;-74
2022/01/07 09:16:24;;;;;;;22.92;12.43;;;;;;;;;;5093533;28;20154;-76
2022/01/07 09:18:50;;;;;;;22.88;13.60;;;;;;;;;;5093235;28;20043;-75
2022/01/07 09:21:16;;;;;;;24.00;13.77;;;;;;;;;;5075913;28;20571;-74
2022/01/07 09:23:42;;;;;;;25.58;13.65;;;;;;;;;;5093565;28;20036;-74
2022/01/07 09:26:09;;;;;;;24.48;12.98;;;;;;;;;;5092963;28;20397;-74
2022/01/07 09:28:35;;;;;;;27.75;13.45;;;;;;;;;;5075230;28;20114;-74
2022/01/07 09:31:01;;;;;;;31.05;13.90;;;;;;;;;;5093921;28;20334;-74
2022/01/07 09:33:27;;;;;;;25.60;13.20;;;;;;;;;;5093679;28;20023;-74
2022/01/07 09:35:53;;;;;;;24.70;12.93;;;;;;;;;;5074946;28;20013;-74
2022/01/07 09:38:21;;;;;;;22.17;12.32;;;;;;;;;;5093131;28;20016;-73
2022/01/07 09:40:47;;;;;;;26.75;14.88;;;;;;;;;;5092964;28;20054;-74
2022/01/07 09:43:15;;;;;;;21.10;13.32;;;;;;;;;;5074780;28;20122;-74
2022/01/07 09:45:41;;;;;;;24.00;13.25;;;;;;;;;;5093251;28;20024;-74
2022/01/07 09:48:08;;;;;;;22.17;13.38;;;;;;;;;;5093239;28;20421;-73
2022/01/07 09:50:34;;;;;;;27.92;13.20;;;;;;;;;;5093764;28;20020;-74
2022/01/07 09:53:15;;;;;;;20.15;13.18;;;;;;;;;;5093776;28;20024;-74
2022/01/07 09:55:41;;;;;;;23.92;13.65;;;;;;;;;;5076415;28;20027;-74
2022/01/07 09:58:07;;;;;;;25.52;13.90;;;;;;;;;;5098063;28;20041;-75
2022/01/07 10:00:41;;;;;;;24.13;13.93;;;;;;;;;;5102052;28;20020;-78
2022/01/07 10:03:11;;;;;;;19.48;10.98;;;;;;;;;;5110820;28;20040;-75
2022/01/07 10:05:42;;;;;;;28.77;14.95;;;;;;;;;;5081639;28;20024;-75
2022/01/07 10:08:22;;;;;;;23.65;14.70;;;;;;;;;;5096842;28;20024;-75
2022/01/07 10:10:48;;;;;;;25.90;15.20;;;;;;;;;;5080181;28;20020;-73
2022/01/07 10:13:19;;;;;;;20.50;14.38;;;;;;;;;;5076242;28;20138;-72
2022/01/07 10:15:45;;;;;;;34.40;18.08;;;;;;;;;;5058469;28;20020;-75
2022/01/07 10:18:12;;;;;;;25.35;15.90;;;;;;;;;;5076582;28;20069;-74
2022/01/07 10:20:43;;;;;;;23.75;15.52;;;;;;;;;;5076171;28;20032;-74
2022/01/07 10:23:08;;;;;;;27.85;16.48;;;;;;;;;;5057996;28;20028;-75
2022/01/07 10:25:39;;;;;;;29.00;17.08;;;;;;;;;;5075473;28;20024;-75
2022/01/07 10:28:09;;;;;;;30.08;17.52;;;;;;;;;;5058579;28;20032;-75
2022/01/07 10:30:37;;;;;;;29.75;18.40;;;;;;;;;;5059653;28;20052;-75
2022/01/07 10:33:16;;;;;;;29.90;18.17;;;;;;;;;;5058480;28;20012;-73
2022/01/07 10:35:42;;;;;;;29.85;18.83;;;;;;;;;;5075854;28;20032;-75
2022/01/07 10:38:08;;;;;;;28.83;18.45;;;;;;;;;;5076226;28;20612;-74
2022/01/07 10:40:35;;;;;;;29.65;18.02;;;;;;;;;;5078085;28;20024;-75
2022/01/07 10:43:09;;;;;;;25.10;17.88;;;;;;;;;;5058773;28;20432;-74
2022/01/07 10:45:35;;;;;;;23.85;17.75;;;;;;;;;;5076218;28;20039;-74
2022/01/07 10:48:01;;;;;;;25.23;17.77;;;;;;;;;;5072965;28;20017;-76
2022/01/07 10:50:27;;;;;;;27.30;18.50;;;;;;;;;;5095083;28;20028;-76
2022/01/07 10:53:13;;;;;;;28.85;18.30;;;;;;;;;;5096054;28;20095;-76
2022/01/07 10:55:39;;;;;;;28.13;18.25;;;;;;;;;;5095704;28;20099;-76
2022/01/07 10:58:05;;;;;;;32.25;20.88;;;;;;;;;;5091887;28;20032;-75
2022/01/07 11:00:36;;;;;;;29.13;19.17;;;;;;;;;;5087052;28;20424;-74
2022/01/07 11:03:07;;;;;;;35.72;21.83;;;;;;;;;;5075770;28;20025;-73
2022/01/07 11:05:33;;;;;;;63.05;31.30;;;;;;;;;;5075928;28;20017;-74
2022/01/07 11:08:00;;;;;;;31.58;19.92;;;;;;;;;;5077040;28;20546;-75
2022/01/07 11:10:26;;;;;;;34.05;20.42;;;;;;;;;;5079065;28;20486;-73
2022/01/07 11:12:52;;;;;;;35.28;20.27;;;;;;;;;;5079321;28;20384;-73
2022/01/07 11:15:18;;;;;;;30.85;18.92;;;;;;;;;;5076782;28;20202;-74
2022/01/07 11:17:44;;;;;;;28.00;19.17;;;;;;;;;;5075880;28;20025;-76
2022/01/07 11:20:12;;;;;;;36.65;20.00;;;;;;;;;;5075705;28;20025;-74
2022/01/07 11:22:40;;;;;;;30.20;19.20;;;;;;;;;;5074759;28;20103;-75
2022/01/07 11:25:11;;;;;;;30.88;19.85;;;;;;;;;;5075083;28;20033;-76
2022/01/07 11:28:06;;;;;;;33.58;20.90;;;;;;;;;;5074442;28;20392;-75
2022/01/07 11:30:32;;;;;;;37.25;22.30;;;;;;;;;;5061866;28;20049;-74
2022/01/07 11:32:58;;;;;;;36.58;21.02;;;;;;;;;;5057123;28;20497;-74
2022/01/07 11:35:24;;;;;;;38.08;23.38;;;;;;;;;;5075407;28;20028;-74
2022/01/07 11:37:51;;;;;;;42.70;21.17;;;;;;;;;;5075349;28;20024;-74
2022/01/07 11:40:30;;;;;;;38.30;22.85;;;;;;;;;;5056924;28;20051;-74
2022/01/07 11:42:57;;;;;;;41.97;24.23;;;;;;;;;;5074697;28;20021;-74
2022/01/07 11:45:30;;;;;;;37.95;21.85;;;;;;;;;;5074052;28;20024;-75
2022/01/07 11:47:59;;;;;;;41.38;22.65;;;;;;;;;;5074065;28;20040;-74
2022/01/07 11:50:26;;;;;;;46.80;23.73;;;;;;;;;;5074693;28;20024;-76
2022/01/07 11:53:01;;;;;;;37.42;22.25;;;;;;;;;;5074121;28;20021;-76
2022/01/07 11:55:30;;;;;;;42.80;25.50;;;;;;;;;;5076220;28;20119;-76
2022/01/07 11:58:01;;;;;;;42.40;22.92;;;;;;;;;;5086803;28;20052;-75
2022/01/07 12:00:46;;;;;;;41.70;24.02;;;;;;;;;;5076891;28;20024;-74
2022/01/07 12:03:12;;;;;;;47.40;26.65;;;;;;;;;;5074337;28;20029;-73
2022/01/07 12:05:38;;;;;;;45.45;27.08;;;;;;;;;;5057641;28;20055;-75
2022/01/07 12:08:04;;;;;;;43.58;26.20;;;;;;;;;;5083366;28;20029;-75
2022/01/07 12:10:30;;;;;;;49.25;27.30;;;;;;;;;;5066301;28;20078;-73
2022/01/07 12:13:02;;;;;;;53.60;26.00;;;;;;;;;;5076537;28;20404;-76
2022/01/07 12:15:28;;;;;;;49.45;26.50;;;;;;;;;;5086694;28;20045;-76
2022/01/07 12:17:55;;;;;;;45.08;26.35;;;;;;;;;;5096974;28;20051;-76
2022/01/07 12:20:36;;;;;;;41.92;24.52;;;;;;;;;;5060577;28;20029;-75
2022/01/07 12:23:02;;;;;;;46.50;25.23;;;;;;;;;;5058296;28;20608;-75
2022/01/07 12:25:28;;;;;;;44.22;25.63;;;;;;;;;;5058263;28;20456;-75
2022/01/07 12:28:01;;;;;;;53.33;26.40;;;;;;;;;;5078140;28;20048;-77
2022/01/07 12:30:28;;;;;;;52.45;27.60;;;;;;;;;;5096869;28;20029;-77
2022/01/07 12:32:58;;;;;;;46.88;23.95;;;;;;;;;;5096478;28;20017;-76
2022/01/07 12:35:29;;;;;;;43.15;24.65;;;;;;;;;;5097233;28;20051;-77
2022/01/07 12:37:55;;;;;;;47.33;23.85;;;;;;;;;;5096864;28;20110;-76
2022/01/07 12:40:20;;;;;;;49.30;25.80;;;5.00;99.90;;;;;;5082057;28;20036;-75
2022/01/07 12:42:46;;;;;;;42.25;25.95;;;4.90;99.90;;;;;;5075315;28;20035;-75
2022/01/07 12:45:19;;;;;;;49.08;25.92;;;4.80;99.90;;;;;;5075885;28;20029;-75
2022/01/07 12:47:45;;;;;;;50.03;26.17;;;4.80;99.90;;;;;;5074634;28;20481;-76
2022/01/07 12:50:11;;;;;;;55.70;26.63;;;4.90;99.90;;;;;;5075107;28;20025;-74
2022/01/07 12:52:42;;;;;;;50.45;26.27;;;4.90;99.90;;;;;;5074157;28;20029;-75
2022/01/07 12:55:18;;;;;;;46.63;25.17;;;4.90;99.90;;;;;;5074078;28;20020;-74
2022/01/07 12:58:02;;;;;;;43.28;24.95;;;5.00;99.90;;;;;;5056301;28;20035;-76
2022/01/07 13:00:32;;;;;;;49.28;24.88;;;5.00;99.90;;;;;;5075274;28;20048;-74
2022/01/07 13:03:01;;;;;;;52.50;25.67;;;5.20;99.90;;;;;;5074395;28;20078;-74
2022/01/07 13:05:37;;;;;;;44.97;24.05;;;5.20;99.90;;;;;;5056641;28;20024;-74
2022/01/07 13:08:14;;;;;;;44.15;22.40;;;5.30;99.90;;;;;;5074524;28;20029;-74
2022/01/07 13:10:42;;;;;;;37.60;22.05;;;5.40;99.90;;;;;;5074690;28;20040;-74
2022/01/07 13:13:24;;;;;;;52.10;24.17;;;5.40;99.90;;;;;;5075393;28;20025;-75
2022/01/07 13:15:58;;;;;;;40.85;23.08;;;5.30;99.90;;;;;;5074795;28;20478;-75
2022/01/07 13:18:29;;;;;;;47.83;24.30;;;5.20;99.90;;;;;;5075145;28;20071;-74
2022/01/07 13:21:09;;;;;;;46.70;23.38;;;5.20;99.90;;;;;;5074570;28;20028;-74
2022/01/07 13:24:01;;;;;;;49.70;24.05;;;5.20;99.90;;;;;;5074442;28;20075;-73
2022/01/07 13:26:32;;;;;;;37.95;22.10;;;5.20;99.90;;;;;;5073725;28;20033;-74
2022/01/07 13:29:19;;;;;;;43.63;22.45;;;5.20;99.90;;;;;;5077097;28;20424;-76
2022/01/07 13:31:47;;;;;;;50.88;24.80;;;5.20;99.90;;;;;;5078154;28;20031;-75
2022/01/07 13:34:28;;;;;;;49.40;26.80;;;5.30;99.90;;;;;;5078929;28;20492;-75
2022/01/07 13:37:00;;;;;;;44.08;23.38;;;5.40;99.90;;;;;;5079224;28;20031;-75
2022/01/07 13:39:26;;;;;;;56.42;30.40;;;5.50;99.90;;;;;;5085566;28;20027;-75
2022/01/07 13:42:03;;;;;;;53.53;25.48;;;5.40;99.90;;;;;;5086982;28;20115;-75
2022/01/07 13:44:30;;;;;;;48.85;25.65;;;5.40;99.90;;;;;;5080458;28;20439;-75
2022/01/07 13:47:01;;;;;;;50.15;24.30;;;5.50;99.90;;;;;;5081409;28;20111;-76
2022/01/07 13:49:31;;;;;;;46.33;23.40;;;5.50;99.90;;;;;;5064868;28;20048;-75
2022/01/07 13:52:03;;;;;;;48.17;23.83;;;5.40;99.90;;;;;;5088083;28;20028;-74
2022/01/07 13:54:40;;;;;;;53.33;24.38;;;5.30;99.90;;;;;;5087867;28;20046;-76
2022/01/07 13:57:12;;;;;;;50.35;24.27;;;5.30;99.90;;;;;;5093182;28;20023;-73
2022/01/07 13:59:44;;;;;;;56.30;25.73;;;5.30;99.90;;;;;;5082766;28;20074;-75
2022/01/07 14:02:16;;;;;;;46.17;24.83;;;5.30;99.90;;;;;;5086175;28;20088;-73
2022/01/07 14:04:48;;;;;;;56.15;24.27;;;5.30;99.90;;;;;;5097864;28;20030;-74
2022/01/07 14:07:50;;;;;;;49.50;25.30;;;5.30;99.90;;;;;;5097766;28;20023;-75
2022/01/07 14:10:19;;;;;;;51.70;25.75;;;5.30;99.90;;;;;;5099838;28;20039;-76
2022/01/07 14:13:05;;;;;;;52.13;25.00;;;5.30;99.90;;;;;;5083440;28;20021;-78
2022/01/07 14:15:36;;;;;;;55.80;24.17;;;5.40;99.90;;;;;;5083749;28;20028;-75